Time,TemperatureF,DewpointF,PressureIn,WindDirection,WindDirectionDegrees,WindSpeedMPH,WindSpeedGustMPH,Humidity,HourlyPrecipIn,Conditions,Clouds,dailyrainin,SoftwareType,DateUTC
2013-10-07 00:13:00,65.0,65.0,30.03,South,179,1.0,5.0,99,0.00,,,0.04,,2013-10-07 04:13:00,
2013-10-07 00:24:00,66.0,66.0,30.03,NE,34,0.0,3.0,99,0.00,,,0.04,,2013-10-07 04:24:00,
2013-10-07 00:44:00,66.0,66.0,30.02,SSW,195,0.0,3.0,99,0.00,,,0.04,,2013-10-07 04:44:00,
2013-10-07 00:53:00,66.0,66.0,30.02,SE,136,0.0,5.0,99,0.00,,,0.04,,2013-10-07 04:53:00,
2013-10-07 01:13:00,66.0,66.0,30.01,ESE,103,0.0,4.0,99,0.00,,,0.04,,2013-10-07 05:13:00,
2013-10-07 01:23:00,66.0,66.0,30.01,SE,128,0.0,2.0,99,0.00,,,0.04,,2013-10-07 05:23:00,
2013-10-07 01:43:00,66.0,66.0,30.01,East,96,0.0,2.0,99,0.00,,,0.04,,2013-10-07 05:43:00,
2013-10-07 01:52:00,66.0,66.0,30.01,ESE,117,1.0,3.0,99,0.00,,,0.04,,2013-10-07 05:52:00,
2013-10-07 02:12:00,66.0,66.0,30.01,WSW,251,0.0,3.0,99,0.00,,,0.04,,2013-10-07 06:12:00,
2013-10-07 02:22:00,66.0,66.0,30.00,East,94,1.0,5.0,99,0.00,,,0.04,,2013-10-07 06:22:00,
2013-10-07 02:42:00,66.0,66.0,29.99,ESE,102,0.0,4.0,99,0.00,,,0.04,,2013-10-07 06:42:00,
2013-10-07 02:52:00,66.0,66.0,29.99,East,98,1.0,6.0,99,0.00,,,0.04,,2013-10-07 06:52:00,
2013-10-07 03:12:00,66.0,66.0,29.98,East,100,0.0,2.0,99,0.00,,,0.04,,2013-10-07 07:12:00,
2013-10-07 03:22:00,66.0,66.0,29.98,SSW,200,0.0,2.0,99,0.00,,,0.04,,2013-10-07 07:22:00,
2013-10-07 03:42:00,66.0,66.0,29.97,WSW,251,0.0,2.0,99,0.00,,,0.04,,2013-10-07 07:42:00,
2013-10-07 03:52:00,66.0,66.0,29.97,SE,141,0.0,3.0,99,0.00,,,0.04,,2013-10-07 07:52:00,
2013-10-07 04:12:00,66.0,66.0,29.97,SSE,148,0.0,3.0,99,0.00,,,0.04,,2013-10-07 08:12:00,
2013-10-07 04:22:00,66.0,66.0,29.96,East,98,1.0,2.0,99,0.00,,,0.04,,2013-10-07 08:22:00,
2013-10-07 04:42:00,66.0,66.0,29.96,East,98,0.0,4.0,99,0.00,,,0.04,,2013-10-07 08:42:00,
2013-10-07 04:52:00,66.0,66.0,29.96,East,94,0.0,5.0,99,0.00,,,0.04,,2013-10-07 08:52:00,
2013-10-07 05:11:00,66.0,66.0,29.95,SW,229,0.0,2.0,99,0.00,,,0.04,,2013-10-07 09:11:00,
2013-10-07 05:22:00,66.0,66.0,29.95,NE,37,0.0,2.0,99,0.00,,,0.04,,2013-10-07 09:22:00,
2013-10-07 05:43:00,66.0,66.0,29.95,SSW,194,1.0,3.0,99,0.00,,,0.04,,2013-10-07 09:43:00,
2013-10-07 05:53:00,66.0,66.0,29.95,WSW,239,0.0,2.0,99,0.00,,,0.04,,2013-10-07 09:53:00,
2013-10-07 06:13:00,66.0,66.0,29.95,ESE,112,1.0,5.0,99,0.00,,,0.04,,2013-10-07 10:13:00,
2013-10-07 06:23:00,66.0,66.0,29.94,SSE,158,1.0,4.0,99,0.00,,,0.04,,2013-10-07 10:23:00,
2013-10-07 06:43:00,66.0,66.0,29.94,SE,135,1.0,7.0,99,0.00,,,0.04,,2013-10-07 10:43:00,
2013-10-07 06:53:00,66.0,66.0,29.93,East,92,2.0,5.0,99,0.00,,,0.04,,2013-10-07 10:53:00,
2013-10-07 07:12:00,66.0,66.0,29.93,SSE,162,2.0,9.0,99,0.00,,,0.04,,2013-10-07 11:12:00,
2013-10-07 07:22:00,67.0,67.0,29.93,SE,137,0.0,5.0,99,0.00,,,0.04,,2013-10-07 11:22:00,
2013-10-07 07:42:00,67.0,67.0,29.93,East,91,2.0,6.0,99,0.00,,,0.04,,2013-10-07 11:42:00,
2013-10-07 07:52:00,67.0,66.0,29.92,SSW,205,3.0,6.0,98,0.00,,,0.04,,2013-10-07 11:52:00,
2013-10-07 08:12:00,67.0,66.0,29.92,SE,146,2.0,8.0,98,0.00,,,0.04,,2013-10-07 12:12:00,
2013-10-07 08:22:00,68.0,67.0,29.92,SSE,163,3.0,8.0,98,0.00,,,0.04,,2013-10-07 12:22:00,
2013-10-07 08:43:00,68.0,67.0,29.92,SE,141,1.0,7.0,97,0.00,,,0.04,,2013-10-07 12:43:00,
2013-10-07 08:52:00,68.0,67.0,29.91,South,186,1.0,9.0,97,0.00,,,0.04,,2013-10-07 12:52:00,
2013-10-07 09:11:00,68.0,67.0,29.91,SE,144,2.0,7.0,97,0.00,,,0.04,,2013-10-07 13:11:00,
2013-10-07 09:22:00,69.0,68.0,29.90,SSW,201,1.0,8.0,96,0.00,,,0.04,,2013-10-07 13:22:00,
2013-10-07 09:42:00,69.0,68.0,29.89,ESE,116,2.0,8.0,96,0.00,,,0.04,,2013-10-07 13:42:00,
2013-10-07 09:52:00,70.0,68.0,29.89,SW,236,5.0,13.0,94,0.00,,,0.04,,2013-10-07 13:52:00,
2013-10-07 10:11:00,70.0,68.0,29.88,SSE,162,5.0,9.0,93,0.00,,,0.04,,2013-10-07 14:11:00,
2013-10-07 10:22:00,71.0,69.0,29.88,South,187,2.0,10.0,92,0.00,,,0.04,,2013-10-07 14:22:00,
2013-10-07 10:42:00,71.0,68.0,29.88,South,169,2.0,9.0,91,0.00,,,0.04,,2013-10-07 14:42:00,
2013-10-07 10:52:00,71.0,68.0,29.86,SE,130,4.0,13.0,90,0.00,,,0.04,,2013-10-07 14:52:00,
2013-10-07 11:11:00,72.0,69.0,29.85,SSE,167,5.0,15.0,89,0.00,,,0.04,,2013-10-07 15:11:00,
2013-10-07 11:22:00,72.0,69.0,29.85,ESE,102,7.0,19.0,89,0.00,,,0.04,,2013-10-07 15:22:00,
2013-10-07 11:43:00,71.0,69.0,29.84,South,187,6.0,15.0,92,0.02,,,0.06,,2013-10-07 15:43:00,
2013-10-07 11:53:00,70.0,68.0,29.83,SE,141,4.0,11.0,94,0.02,,,0.06,,2013-10-07 15:53:00,
2013-10-07 12:13:00,70.0,68.0,29.83,SW,224,5.0,14.0,95,0.05,,,0.09,,2013-10-07 16:13:00,
2013-10-07 12:23:00,70.0,69.0,29.82,ESE,122,6.0,14.0,96,0.06,,,0.10,,2013-10-07 16:23:00,
2013-10-07 12:43:00,69.0,68.0,29.82,West,267,9.0,17.0,97,0.05,,,0.11,,2013-10-07 16:43:00,
2013-10-07 12:53:00,69.0,68.0,29.81,East,94,5.0,14.0,97,0.05,,,0.11,,2013-10-07 16:53:00,
2013-10-07 13:12:00,70.0,69.0,29.79,ESE,108,2.0,11.0,98,0.02,,,0.11,,2013-10-07 17:12:00,
2013-10-07 13:22:00,70.0,69.0,29.78,East,97,5.0,18.0,97,0.02,,,0.12,,2013-10-07 17:22:00,
2013-10-07 13:42:00,70.0,69.0,29.78,SSW,196,7.0,18.0,97,0.01,,,0.11,,2013-10-07 17:42:00,
2013-10-07 13:52:00,70.0,69.0,29.77,SE,136,7.0,17.0,97,0.01,,,0.11,,2013-10-07 17:52:00,
2013-10-07 14:12:00,71.0,70.0,29.76,ESE,108,6.0,15.0,97,0.01,,,0.11,,2013-10-07 18:12:00,
2013-10-07 14:22:00,71.0,70.0,29.75,South,172,6.0,15.0,96,0.00,,,0.11,,2013-10-07 18:22:00,
2013-10-07 14:42:00,72.0,70.0,29.74,South,172,5.0,15.0,95,0.00,,,0.11,,2013-10-07 18:42:00,
2013-10-07 14:52:00,72.0,70.0,29.74,SE,135,6.0,14.0,94,0.01,,,0.12,,2013-10-07 18:52:00,
2013-10-07 15:11:00,72.0,70.0,29.74,SW,222,4.0,12.0,92,0.01,,,0.12,,2013-10-07 19:11:00,
2013-10-07 15:22:00,73.0,70.0,29.73,SSE,165,6.0,15.0,90,0.01,,,0.12,,2013-10-07 19:22:00,
2013-10-07 15:42:00,73.0,69.0,29.72,ESE,120,8.0,16.0,88,0.01,,,0.11,,2013-10-07 19:42:00,
2013-10-07 15:52:00,68.0,66.0,29.77,WSW,245,3.0,28.0,92,0.12,,,0.23,,2013-10-07 19:52:00,
2013-10-07 16:12:00,67.0,65.0,29.78,WNW,290,2.0,15.0,94,0.12,,,0.23,,2013-10-07 20:12:00,
2013-10-07 16:22:00,66.0,64.0,29.79,WSW,246,6.0,16.0,92,0.12,,,0.23,,2013-10-07 20:22:00,
2013-10-07 16:43:00,66.0,64.0,29.79,West,259,5.0,15.0,93,0.14,,,0.25,,2013-10-07 20:43:00,
2013-10-07 16:52:00,65.0,64.0,29.80,WSW,257,2.0,12.0,95,0.07,,,0.30,,2013-10-07 20:52:00,
2013-10-07 17:12:00,65.0,64.0,29.81,West,273,2.0,7.0,96,0.08,,,0.31,,2013-10-07 21:12:00,
2013-10-07 17:23:00,65.0,64.0,29.80,West,277,2.0,8.0,96,0.08,,,0.31,,2013-10-07 21:23:00,
2013-10-07 17:43:00,65.0,64.0,29.81,WSW,253,2.0,6.0,97,0.06,,,0.30,,2013-10-07 21:43:00,
2013-10-07 17:55:00,65.0,64.0,29.84,West,278,4.0,11.0,97,0.03,,,0.32,,2013-10-07 21:55:00,
2013-10-07 18:13:00,63.0,61.0,29.86,West,264,5.0,11.0,93,0.03,,,0.33,,2013-10-07 22:13:00,
2013-10-07 18:24:00,62.0,60.0,29.85,NNW,333,4.0,9.0,92,0.03,,,0.33,,2013-10-07 22:24:00,
2013-10-07 18:43:00,62.0,60.0,29.86,NNW,346,2.0,7.0,93,0.04,,,0.34,,2013-10-07 22:43:00,
2013-10-07 18:53:00,61.0,59.0,29.87,WNW,292,1.0,7.0,92,0.02,,,0.34,,2013-10-07 22:53:00,
2013-10-07 19:12:00,61.0,59.0,29.88,West,280,3.0,6.0,92,0.01,,,0.34,,2013-10-07 23:12:00,
2013-10-07 19:22:00,61.0,59.0,29.88,WNW,283,2.0,5.0,92,0.01,,,0.34,,2013-10-07 23:22:00,
2013-10-07 19:52:00,60.0,56.0,29.89,West,281,1.0,9.0,88,0.00,,,0.34,,2013-10-07 23:52:00,
2013-10-07 20:12:00,60.0,57.0,29.88,NNW,328,1.0,5.0,89,0.00,,,0.34,,2013-10-08 00:12:00,
2013-10-07 20:22:00,59.0,55.0,29.89,West,270,1.0,5.0,88,0.00,,,0.34,,2013-10-08 00:22:00,
2013-10-07 20:42:00,59.0,55.0,29.91,WNW,290,2.0,5.0,88,0.00,,,0.34,,2013-10-08 00:42:00,
2013-10-07 20:52:00,59.0,56.0,29.91,WSW,255,0.0,2.0,89,0.00,,,0.34,,2013-10-08 00:52:00,
2013-10-07 21:12:00,59.0,56.0,29.91,West,264,0.0,3.0,89,0.00,,,0.34,,2013-10-08 01:12:00,
2013-10-07 21:22:00,59.0,55.0,29.91,West,279,1.0,5.0,88,0.00,,,0.34,,2013-10-08 01:22:00,
2013-10-07 21:42:00,59.0,55.0,29.92,West,266,0.0,5.0,87,0.00,,,0.34,,2013-10-08 01:42:00,
2013-10-07 21:52:00,59.0,54.0,29.92,NW,307,1.0,4.0,85,0.00,,,0.34,,2013-10-08 01:52:00,
2013-10-07 22:11:00,59.0,54.0,29.93,West,275,2.0,7.0,84,0.00,,,0.34,,2013-10-08 02:11:00,
2013-10-07 22:22:00,59.0,54.0,29.93,NW,322,2.0,8.0,83,0.00,,,0.34,,2013-10-08 02:22:00,
2013-10-07 22:42:00,59.0,53.0,29.93,North,7,3.0,9.0,81,0.00,,,0.33,,2013-10-08 02:42:00,
2013-10-07 22:52:00,59.0,53.0,29.93,NNW,333,2.0,7.0,81,0.00,,,0.33,,2013-10-08 02:52:00,
2013-10-07 23:11:00,58.0,53.0,29.93,North,356,0.0,1.0,82,0.00,,,0.33,,2013-10-08 03:11:00,
2013-10-07 23:22:00,58.0,51.0,29.94,NE,39,3.0,8.0,77,0.00,,,0.33,,2013-10-08 03:22:00,
2013-10-07 23:44:00,58.0,50.0,29.95,NE,38,4.0,12.0,75,0.00,,,0.33,,2013-10-08 03:44:00,
2013-10-07 23:55:00,58.0,49.0,29.96,NW,310,3.0,9.0,72,0.00,,,0.33,,2013-10-08 03:55:00,